createdAt,value
2022-09-03T00:02:18.071Z,16.29
2022-09-03T00:05:05.930Z,16.22
2022-09-03T00:07:37.549Z,16.27
2022-09-03T00:10:11.528Z,16.37
2022-09-03T00:12:43.289Z,16.34
2022-09-03T00:15:12.941Z,16.20
2022-09-03T00:17:47.468Z,16.06
2022-09-03T00:20:34.157Z,16.14
2022-09-03T00:23:05.593Z,16.07
2022-09-03T00:25:52.848Z,16.12
2022-09-03T00:28:30.270Z,15.92
2022-09-03T00:31:07.530Z,16.06
2022-09-03T00:33:34.598Z,15.93
2022-09-03T00:36:01.113Z,15.90
2022-09-03T00:38:29.847Z,16.03
2022-09-03T00:41:24.712Z,16.08
2022-09-03T00:44:07.772Z,15.87
2022-09-03T00:46:58.309Z,15.75
2022-09-03T00:49:30.487Z,15.71
2022-09-03T00:51:56.752Z,15.69
2022-09-03T00:54:33.057Z,15.74
2022-09-03T00:57:25.870Z,15.70
2022-09-03T01:00:04.591Z,15.73
2022-09-03T01:02:35.287Z,15.74
2022-09-03T01:05:18.235Z,15.73
2022-09-03T01:07:58.609Z,15.86
2022-09-03T01:10:32.467Z,15.54
2022-09-03T01:13:16.716Z,15.60
2022-09-03T01:16:09.457Z,15.50
2022-09-03T01:18:45.490Z,15.29
2022-09-03T01:21:30.782Z,15.36
2022-09-03T01:24:21.893Z,14.98
2022-09-03T01:27:01.127Z,15.01
2022-09-03T01:29:40.523Z,14.83
2022-09-03T01:32:20.276Z,14.89
2022-09-03T01:34:56.550Z,14.96
2022-09-03T01:37:33.036Z,14.97
2022-09-03T01:40:14.663Z,14.93
2022-09-03T01:43:18.634Z,14.62
2022-09-03T01:45:54.258Z,14.79
2022-09-03T01:48:32.744Z,14.68
2022-09-03T01:51:19.718Z,14.81
2022-09-03T01:54:21.012Z,14.68
2022-09-03T01:57:34.780Z,14.78
2022-09-03T02:00:33.584Z,14.55
2022-09-03T02:03:05.805Z,14.51
2022-09-03T02:05:32.343Z,14.24
2022-09-03T02:08:04.883Z,14.31
2022-09-03T02:10:47.293Z,14.15
2022-09-03T02:13:16.855Z,14.09
2022-09-03T02:15:49.256Z,14.14
2022-09-03T02:18:41.790Z,14.07
2022-09-03T02:21:10.547Z,13.94
2022-09-03T02:23:40.599Z,13.68
2022-09-03T02:26:08.809Z,13.81
2022-09-03T02:28:35.733Z,14.09
2022-09-03T02:31:02.970Z,13.99
2022-09-03T02:33:37.185Z,14.00
2022-09-03T02:36:07.037Z,13.93
2022-09-03T02:38:34.044Z,13.81
2022-09-03T02:41:00.534Z,13.68
2022-09-03T02:43:33.013Z,13.85
2022-09-03T02:46:03.130Z,13.70
2022-09-03T02:48:29.608Z,13.72
2022-09-03T02:50:56.063Z,13.61
2022-09-03T02:53:22.770Z,13.54
2022-09-03T02:55:49.240Z,13.57
2022-09-03T02:58:15.985Z,13.50
2022-09-03T03:00:42.551Z,13.24
2022-09-03T03:03:09.181Z,13.27
2022-09-03T03:06:03.238Z,13.27
2022-09-03T03:08:30.369Z,13.48
2022-09-03T03:10:58.951Z,13.49
2022-09-03T03:13:26.448Z,13.56
2022-09-03T03:15:57.041Z,13.52
2022-09-03T03:18:24.027Z,13.76
2022-09-03T03:20:51.385Z,13.78
2022-09-03T03:23:17.942Z,13.60
2022-09-03T03:25:44.425Z,13.50
2022-09-03T03:28:36.031Z,13.57
2022-09-03T03:31:29.378Z,13.62
2022-09-03T03:33:58.224Z,13.67
2022-09-03T03:36:26.623Z,13.50
2022-09-03T03:38:58.226Z,13.27
2022-09-03T03:41:33.077Z,13.29
2022-09-03T03:44:08.090Z,13.12
2022-09-03T03:46:38.093Z,13.37
2022-09-03T03:49:06.683Z,13.11
2022-09-03T03:51:34.275Z,13.13
2022-09-03T03:57:47.827Z,12.77
2022-09-03T04:00:15.260Z,13.06
2022-09-03T04:02:41.885Z,13.28
2022-09-03T04:05:08.905Z,13.10
2022-09-03T04:07:36.305Z,13.17
2022-09-03T04:10:02.739Z,13.33
2022-09-03T04:12:29.280Z,13.31
2022-09-03T04:14:55.753Z,13.03
2022-09-03T04:17:25.247Z,12.92
2022-09-03T04:19:52.183Z,12.91
2022-09-03T04:22:19.791Z,12.94
2022-09-03T04:24:46.459Z,13.18
2022-09-03T04:27:12.919Z,12.92
2022-09-03T04:29:39.405Z,12.78
2022-09-03T04:32:24.885Z,12.81
2022-09-03T04:34:51.342Z,12.81
2022-09-03T04:37:19.829Z,12.81
2022-09-03T04:39:46.411Z,13.11
2022-09-03T04:42:12.887Z,13.00
2022-09-03T04:44:41.090Z,13.06
2022-09-03T04:47:07.641Z,13.02
2022-09-03T04:49:34.629Z,12.80
2022-09-03T04:52:01.560Z,12.86
2022-09-03T04:54:29.489Z,12.82
2022-09-03T04:57:35.573Z,12.91
2022-09-03T05:00:02.404Z,12.90
2022-09-03T05:02:28.874Z,12.95
2022-09-03T05:05:20.688Z,12.78
2022-09-03T05:07:47.194Z,12.71
2022-09-03T05:10:20.316Z,12.79
2022-09-03T05:12:48.367Z,12.76
2022-09-03T05:15:23.997Z,12.77
2022-09-03T05:17:53.969Z,12.96
2022-09-03T05:20:20.524Z,13.08
2022-09-03T05:22:48.714Z,13.12
2022-09-03T05:25:15.134Z,13.18
2022-09-03T05:31:30.302Z,13.24
2022-09-03T05:34:00.656Z,13.43
2022-09-03T05:36:29.958Z,13.25
2022-09-03T05:42:43.777Z,13.53
2022-09-03T05:45:10.939Z,13.57
2022-09-03T05:47:39.570Z,13.54
2022-09-03T05:50:08.710Z,13.57
2022-09-03T05:52:36.145Z,13.57
2022-09-03T05:55:03.180Z,13.68
2022-09-03T05:57:30.948Z,13.71
2022-09-03T05:59:57.514Z,13.71
2022-09-03T06:02:24.056Z,13.86
2022-09-03T06:04:51.284Z,13.97
2022-09-03T06:11:05.493Z,14.24
2022-09-03T06:13:33.215Z,14.41
2022-09-03T06:16:01.731Z,14.33
2022-09-03T06:18:28.938Z,14.43
2022-09-03T06:21:01.137Z,14.40
2022-09-03T06:23:28.109Z,14.40
2022-09-03T06:26:07.235Z,14.52
2022-09-03T06:28:36.022Z,14.55
2022-09-03T06:31:04.156Z,14.78
2022-09-03T06:33:32.773Z,14.82
2022-09-03T06:36:00.971Z,14.92
2022-09-03T06:38:33.473Z,14.95
2022-09-03T06:41:04.239Z,15.13
2022-09-03T06:43:32.503Z,15.30
2022-09-03T06:46:01.276Z,15.45
2022-09-03T06:48:29.998Z,15.40
2022-09-03T06:51:01.338Z,15.48
2022-09-03T06:53:32.158Z,15.63
2022-09-03T06:59:39.596Z,15.77
2022-09-03T07:02:07.339Z,15.93
2022-09-03T07:04:34.672Z,15.93
2022-09-03T07:07:02.334Z,16.11
2022-09-03T07:09:28.791Z,16.31
2022-09-03T07:11:55.511Z,16.39
2022-09-03T07:14:22.935Z,16.42
2022-09-03T07:16:49.784Z,16.67
2022-09-03T07:19:16.689Z,16.69
2022-09-03T07:21:48.330Z,16.81
2022-09-03T07:24:15.519Z,16.83
2022-09-03T07:30:22.973Z,17.23
2022-09-03T07:32:51.690Z,17.44
2022-09-03T07:35:19.351Z,17.53
2022-09-03T07:37:48.152Z,17.66
2022-09-03T07:40:19.889Z,17.82
2022-09-03T07:46:35.508Z,18.05
2022-09-03T07:49:06.124Z,18.10
2022-09-03T07:51:35.660Z,18.29
2022-09-03T07:54:05.983Z,18.47
2022-09-03T07:56:32.815Z,18.56
2022-09-03T07:58:59.583Z,18.78
2022-09-03T08:01:28.570Z,18.90
2022-09-03T08:07:42.141Z,19.00
2022-09-03T08:10:08.921Z,19.07
2022-09-03T08:12:35.372Z,19.11
2022-09-03T08:15:02.581Z,19.18
2022-09-03T08:17:31.942Z,19.47
2022-09-03T08:23:47.049Z,19.82
2022-09-03T08:26:15.332Z,19.85
2022-09-03T08:28:43.086Z,19.90
2022-09-03T08:31:21.409Z,19.89
2022-09-03T08:33:50.760Z,20.02
2022-09-03T08:36:29.981Z,20.05
2022-09-03T08:38:58.559Z,20.32
2022-09-03T08:41:37.670Z,20.43
2022-09-03T08:44:22.302Z,20.59
2022-09-03T08:47:10.253Z,20.72
2022-09-03T08:50:16.845Z,21.00
2022-09-03T08:56:29.298Z,20.93
2022-09-03T08:58:56.060Z,21.15
2022-09-03T09:01:38.977Z,21.17
2022-09-03T09:04:11.295Z,21.22
2022-09-03T09:06:58.329Z,21.26
2022-09-03T09:09:36.036Z,21.43
2022-09-03T09:12:28.855Z,21.54
2022-09-03T09:15:18.635Z,21.40
2022-09-03T09:18:05.356Z,21.78
2022-09-03T09:20:47.008Z,21.77
2022-09-03T09:23:33.723Z,21.92
2022-09-03T09:26:02.929Z,21.93
2022-09-03T09:28:34.507Z,22.03
2022-09-03T09:31:02.269Z,22.12
2022-09-03T09:33:31.218Z,22.25
2022-09-03T09:36:03.974Z,22.16
2022-09-03T09:38:32.414Z,21.82
2022-09-03T09:41:10.008Z,21.86
2022-09-03T09:43:36.668Z,22.31
2022-09-03T09:46:29.361Z,22.58
2022-09-03T09:48:57.905Z,22.58
2022-09-03T09:51:31.196Z,22.80
2022-09-03T09:54:12.298Z,23.02
2022-09-03T09:56:38.967Z,22.96
2022-09-03T09:59:06.795Z,23.23
2022-09-03T10:01:33.845Z,22.90
2022-09-03T10:04:08.643Z,23.27
2022-09-03T10:06:53.960Z,23.58
2022-09-03T10:09:30.893Z,23.53
2022-09-03T10:12:14.527Z,23.88
2022-09-03T10:14:58.656Z,24.03
2022-09-03T10:17:53.609Z,24.44
2022-09-03T10:20:42.113Z,24.64
2022-09-03T10:23:28.102Z,24.69
2022-09-03T10:26:09.492Z,25.03
2022-09-03T10:28:41.921Z,25.64
2022-09-03T10:31:54.100Z,25.65
2022-09-03T10:34:42.551Z,25.89
2022-09-03T10:37:35.799Z,25.60
2022-09-03T10:40:41.464Z,25.38
2022-09-03T10:43:39.387Z,25.85
2022-09-03T10:46:24.376Z,25.84
2022-09-03T10:52:41.102Z,26.81
2022-09-03T10:55:17.986Z,26.26
2022-09-03T10:58:25.096Z,26.47
2022-09-03T11:01:01.533Z,26.82
2022-09-03T11:03:45.598Z,26.13
2022-09-03T11:10:30.946Z,26.16
2022-09-03T11:12:57.663Z,25.99
2022-09-03T11:15:27.926Z,26.88
2022-09-03T11:18:16.672Z,26.38
2022-09-03T11:21:07.752Z,26.93
2022-09-03T11:23:46.402Z,27.07
2022-09-03T11:26:15.145Z,27.46
2022-09-03T11:28:55.626Z,27.90
2022-09-03T11:31:43.903Z,28.17
2022-09-03T11:34:32.493Z,27.80
2022-09-03T11:37:13.007Z,26.87
2022-09-03T11:43:32.039Z,26.90
2022-09-03T11:46:22.118Z,27.72
2022-09-03T11:52:40.455Z,27.28
2022-09-03T11:55:07.830Z,26.72
2022-09-03T11:57:45.952Z,26.92
2022-09-03T12:00:23.000Z,27.11
2022-09-03T12:02:59.113Z,27.52
2022-09-03T12:05:38.147Z,28.24
2022-09-03T12:12:11.140Z,28.72
2022-09-03T12:14:40.558Z,28.44
2022-09-03T12:17:19.082Z,27.61
2022-09-03T12:20:30.625Z,28.68
2022-09-03T12:22:57.153Z,29.66
2022-09-03T12:25:23.652Z,28.67
2022-09-03T12:28:13.147Z,28.16
2022-09-03T12:30:39.682Z,27.21
2022-09-03T12:33:07.859Z,27.09
2022-09-03T12:36:18.153Z,26.78
2022-09-03T12:39:09.913Z,26.71
2022-09-03T12:41:31.687Z,26.34
2022-09-03T12:44:10.838Z,26.36
2022-09-03T12:46:37.977Z,26.22
2022-09-03T12:52:06.244Z,26.54
2022-09-03T12:54:35.278Z,26.65
2022-09-03T12:57:01.906Z,26.42
2022-09-03T12:59:33.018Z,26.13
2022-09-03T13:02:03.474Z,26.08
2022-09-03T13:04:32.864Z,26.69
2022-09-03T13:07:06.628Z,28.05
2022-09-03T13:09:36.290Z,28.78
2022-09-03T13:12:05.700Z,28.69
2022-09-03T13:14:47.729Z,28.70
2022-09-03T13:17:52.478Z,28.72
2022-09-03T13:20:34.088Z,28.16
2022-09-03T13:23:22.523Z,28.15
2022-09-03T13:26:18.911Z,29.68
2022-09-03T13:29:14.720Z,29.51
2022-09-03T13:31:46.378Z,31.69
2022-09-03T13:34:21.108Z,32.79
2022-09-03T13:37:03.176Z,33.45
2022-09-03T13:40:00.132Z,33.35
2022-09-03T13:42:52.435Z,33.54
2022-09-03T13:45:37.992Z,33.77
2022-09-03T13:48:36.937Z,33.00
2022-09-03T13:51:20.672Z,31.48
2022-09-03T13:53:55.210Z,29.96
2022-09-03T13:57:05.620Z,28.80
2022-09-03T13:59:48.548Z,28.21
2022-09-03T14:02:37.073Z,27.61
2022-09-03T14:05:34.564Z,27.07
2022-09-03T14:08:08.294Z,26.92
2022-09-03T14:11:19.277Z,26.57
2022-09-03T14:14:12.784Z,26.69
2022-09-03T14:16:59.534Z,26.69
2022-09-03T14:20:01.362Z,26.74
2022-09-03T14:23:05.754Z,26.90
2022-09-03T14:25:33.082Z,26.67
2022-09-03T14:28:33.053Z,26.91
2022-09-03T14:31:13.861Z,26.90
2022-09-03T14:33:57.879Z,26.58
2022-09-03T14:36:36.880Z,27.26
2022-09-03T14:39:12.852Z,27.88
2022-09-03T14:42:18.468Z,27.92
2022-09-03T14:44:51.785Z,27.91
2022-09-03T14:47:36.454Z,27.34
2022-09-03T14:50:07.997Z,27.21
2022-09-03T14:52:53.638Z,27.17
2022-09-03T14:55:28.996Z,27.05
2022-09-03T14:58:43.587Z,26.98
2022-09-03T15:01:15.318Z,26.49
2022-09-03T15:03:57.370Z,26.47
2022-09-03T15:06:43.212Z,26.78
2022-09-03T15:09:18.690Z,26.79
2022-09-03T15:11:52.962Z,26.54
2022-09-03T15:14:48.122Z,26.43
2022-09-03T15:17:22.338Z,26.47
2022-09-03T15:20:07.621Z,26.60
2022-09-03T15:22:37.829Z,26.98
2022-09-03T15:25:24.536Z,27.03
2022-09-03T15:28:00.417Z,26.80
2022-09-03T15:30:34.610Z,26.98
2022-09-03T15:33:30.368Z,26.94
2022-09-03T15:36:13.673Z,26.62
2022-09-03T15:38:55.353Z,26.43
2022-09-03T15:41:32.338Z,26.56
2022-09-03T15:44:01.402Z,26.17
2022-09-03T15:46:39.098Z,26.38
2022-09-03T15:49:25.798Z,26.46
2022-09-03T15:52:31.230Z,26.39
2022-09-03T15:55:10.772Z,25.88
2022-09-03T15:57:45.079Z,26.04
2022-09-03T16:00:13.926Z,25.82
2022-09-03T16:03:03.985Z,25.85
2022-09-03T16:05:45.596Z,25.55
2022-09-03T16:12:35.226Z,25.60
2022-09-03T16:15:30.716Z,25.49
2022-09-03T16:18:23.609Z,25.58
2022-09-03T16:20:55.794Z,25.42
2022-09-03T16:23:28.884Z,25.64
2022-09-03T16:26:05.810Z,25.48
2022-09-03T16:28:53.500Z,25.30
2022-09-03T16:31:21.300Z,25.19
2022-09-03T16:33:54.319Z,25.18
2022-09-03T16:36:44.429Z,25.31
2022-09-03T16:39:19.544Z,25.16
2022-09-03T16:42:08.348Z,24.70
2022-09-03T16:45:06.534Z,24.74
2022-09-03T16:47:46.697Z,24.78
2022-09-03T16:54:28.234Z,24.30
2022-09-03T16:57:12.366Z,24.27
2022-09-03T16:59:57.693Z,24.40
2022-09-03T17:03:12.022Z,24.24
2022-09-03T17:05:52.308Z,24.06
2022-09-03T17:08:43.971Z,24.03
2022-09-03T17:15:13.733Z,23.92
2022-09-03T17:18:25.510Z,23.95
2022-09-03T17:24:52.925Z,23.80
2022-09-03T17:27:52.566Z,23.84
2022-09-03T17:30:32.012Z,23.71
2022-09-03T17:33:04.957Z,23.59
2022-09-03T17:35:40.741Z,23.42
2022-09-03T17:38:25.246Z,23.46
2022-09-03T17:41:19.131Z,23.38
2022-09-03T17:44:08.584Z,23.28
2022-09-03T17:46:44.507Z,23.26
2022-09-03T17:53:03.428Z,23.12
2022-09-03T17:55:34.237Z,22.98
2022-09-03T18:01:51.959Z,22.94
2022-09-03T18:04:32.067Z,22.90
2022-09-03T18:07:39.599Z,22.82
2022-09-03T18:10:29.028Z,22.74
2022-09-03T18:13:16.485Z,22.76
2022-09-03T18:16:16.347Z,22.61
2022-09-03T18:18:47.710Z,22.42
2022-09-03T18:21:40.536Z,22.48
2022-09-03T18:24:51.163Z,22.42
2022-09-03T18:27:59.657Z,22.30
2022-09-03T18:31:24.899Z,22.24
2022-09-03T18:34:09.963Z,22.17
2022-09-03T18:36:55.310Z,22.08
2022-09-03T18:39:44.960Z,22.05
2022-09-03T18:42:55.058Z,22.10
2022-09-03T18:49:16.653Z,22.02
2022-09-03T18:52:01.966Z,22.03
2022-09-03T18:55:07.761Z,21.90
2022-09-03T18:58:24.149Z,21.91
2022-09-03T19:05:10.752Z,21.90
2022-09-03T19:08:21.006Z,21.89
2022-09-03T19:11:44.437Z,21.78
2022-09-03T19:14:50.936Z,21.72
2022-09-03T19:17:43.987Z,21.72
2022-09-03T19:20:39.453Z,21.69
2022-09-03T19:23:24.495Z,21.68
2022-09-03T19:26:10.606Z,21.61
2022-09-03T19:28:59.726Z,21.56
2022-09-03T19:32:04.416Z,21.42
2022-09-03T19:35:22.386Z,21.37
2022-09-03T19:38:24.071Z,21.19
2022-09-03T19:41:20.281Z,21.10
2022-09-03T19:44:26.807Z,20.99
2022-09-03T19:51:18.661Z,20.94
2022-09-03T19:57:45.798Z,20.67
2022-09-03T20:00:33.341Z,20.71
2022-09-03T20:03:19.179Z,20.50
2022-09-03T20:06:08.864Z,20.68
2022-09-03T20:12:20.824Z,20.69
2022-09-03T20:18:48.201Z,20.43
2022-09-03T20:21:19.378Z,20.41
2022-09-03T20:23:51.824Z,20.51
2022-09-03T20:30:11.259Z,20.34
2022-09-03T20:33:14.926Z,20.27
2022-09-03T20:35:57.970Z,20.16
2022-09-03T20:42:18.248Z,20.15
2022-09-03T20:45:17.343Z,20.01
2022-09-03T20:48:21.870Z,20.03
2022-09-03T20:51:13.088Z,19.88
2022-09-03T20:53:49.479Z,19.88
2022-09-03T20:56:40.496Z,19.78
2022-09-03T20:59:28.816Z,19.71
2022-09-03T21:06:09.823Z,19.65
2022-09-03T21:08:48.403Z,19.46
2022-09-03T21:11:28.441Z,19.27
2022-09-03T21:14:16.187Z,19.21
2022-09-03T21:16:49.856Z,19.18
2022-09-03T21:23:35.599Z,18.92
2022-09-03T21:26:16.625Z,18.71
2022-09-03T21:29:09.398Z,18.72
2022-09-03T21:35:44.921Z,18.70
2022-09-03T21:38:17.043Z,18.59
2022-09-03T21:40:46.936Z,18.52
2022-09-03T21:44:01.876Z,18.71
2022-09-03T21:46:32.660Z,18.80
2022-09-03T21:49:10.967Z,18.73
2022-09-03T21:51:47.049Z,18.65
2022-09-03T21:54:19.374Z,18.59
2022-09-03T21:56:54.956Z,18.70
2022-09-03T21:59:44.617Z,18.60
2022-09-03T22:02:27.952Z,18.40
2022-09-03T22:04:56.191Z,18.59
2022-09-03T22:07:53.284Z,18.58
2022-09-03T22:10:34.306Z,18.65
2022-09-03T22:13:16.556Z,18.59
2022-09-03T22:15:51.277Z,18.57
2022-09-03T22:18:28.630Z,18.47
2022-09-03T22:21:20.300Z,18.35
2022-09-03T22:24:19.053Z,18.33
2022-09-03T22:26:45.549Z,17.99
2022-09-03T22:29:15.294Z,17.97
2022-09-03T22:32:07.884Z,17.95
2022-09-03T22:34:49.080Z,17.98
2022-09-03T22:37:51.382Z,18.03
2022-09-03T22:40:29.105Z,17.99
2022-09-03T22:43:06.121Z,18.13
2022-09-03T22:49:22.343Z,17.99
2022-09-03T22:52:02.572Z,17.84
2022-09-03T22:54:51.847Z,17.85
2022-09-03T22:57:19.455Z,17.83
2022-09-03T23:00:15.860Z,17.79
2022-09-03T23:06:34.550Z,17.76
2022-09-03T23:09:09.507Z,17.67
2022-09-03T23:11:43.645Z,17.63
2022-09-03T23:14:21.426Z,17.72
2022-09-03T23:19:40.647Z,17.69
2022-09-03T23:22:31.585Z,17.69
2022-09-03T23:25:19.840Z,17.35
2022-09-03T23:27:54.387Z,17.51
2022-09-03T23:30:20.843Z,17.48
2022-09-03T23:32:50.496Z,17.35
2022-09-03T23:35:18.100Z,17.16
2022-09-03T23:38:21.068Z,17.17
2022-09-03T23:40:49.437Z,17.15
2022-09-03T23:44:01.647Z,17.17
2022-09-03T23:47:02.137Z,17.16
2022-09-03T23:49:47.998Z,17.16
2022-09-03T23:52:32.190Z,16.95
2022-09-03T23:55:07.746Z,16.91
2022-09-03T23:57:51.346Z,16.80
